Time;durP1;ratioP1;P1;durP2;ratioP2;P2;SDS_P1;SDS_P2;PMS_P1;PMS_P2;Temp;Humidity;BMP_temperature;BMP_pressure;BME280_temperature;BME280_humidity;BME280_pressure;Samples;Min_cycle;Max_cycle;Signal;HPM_P1;HPM_P2
2024/01/26 00:00:00;;;;;;;2.90;1.20;;;13.90;74.20;;;;;;2264481;55;21033;-69
2024/01/26 00:02:27;;;;;;;2.55;1.20;;;13.90;74.30;;;;;;2264248;55;20934;-68
2024/01/26 00:04:54;;;;;;;2.10;0.95;;;13.90;74.40;;;;;;2263990;55;21314;-67
2024/01/26 00:07:20;;;;;;;2.20;1.10;;;13.90;74.40;;;;;;2265947;55;21000;-67
2024/01/26 00:09:46;;;;;;;2.30;1.05;;;13.90;74.40;;;;;;2254672;55;21073;-67
2024/01/26 00:12:13;;;;;;;2.33;0.98;;;13.90;74.40;;;;;;2262853;55;20971;-69
2024/01/26 00:14:40;;;;;;;2.35;1.02;;;13.90;74.40;;;;;;2266088;55;20954;-69
2024/01/26 00:17:10;;;;;;;1.85;0.90;;;13.90;74.40;;;;;;2482702;54;20942;-68
2024/01/26 00:19:37;;;;;;;2.22;0.90;;;13.90;74.20;;;;;;2494108;54;21975;-69
2024/01/26 00:22:04;;;;;;;1.87;0.75;;;13.90;74.30;;;;;;2263920;55;21022;-68
2024/01/26 00:24:30;;;;;;;2.10;0.98;;;13.90;74.30;;;;;;2494003;54;20963;-69
2024/01/26 00:26:57;;;;;;;2.80;0.80;;;13.90;74.30;;;;;;2491970;54;21482;-68
2024/01/26 00:29:25;;;;;;;3.25;0.90;;;13.90;74.20;;;;;;2236788;57;21282;-68
2024/01/26 00:31:52;;;;;;;2.80;1.00;;;13.90;74.20;;;;;;2492587;54;20946;-69
2024/01/26 00:34:18;;;;;;;2.37;1.02;;;13.90;74.10;;;;;;2494262;54;20954;-69
2024/01/26 00:36:45;;;;;;;3.12;0.93;;;13.80;74.00;;;;;;2493604;54;21058;-68
2024/01/26 00:39:11;;;;;;;2.28;0.85;;;13.80;74.10;;;;;;2265490;55;20942;-67
2024/01/26 00:41:38;;;;;;;4.12;1.00;;;13.80;74.20;;;;;;2493872;54;21415;-67
2024/01/26 00:44:04;;;;;;;2.55;1.10;;;13.80;74.20;;;;;;2257046;56;20940;-69
2024/01/26 00:46:30;;;;;;;1.98;0.90;;;13.80;74.10;;;;;;2494176;54;21505;-69
2024/01/26 00:48:57;;;;;;;2.65;0.85;;;13.80;74.20;;;;;;2264708;55;20954;-68
2024/01/26 00:51:23;;;;;;;1.90;0.82;;;13.80;74.20;;;;;;2265329;55;20926;-68
2024/01/26 00:53:49;;;;;;;2.17;0.77;;;13.80;74.10;;;;;;2265461;55;21002;-69
2024/01/26 00:56:16;;;;;;;2.47;0.93;;;13.80;74.20;;;;;;2257963;56;20953;-68
2024/01/26 00:58:43;;;;;;;1.95;0.85;;;13.80;74.10;;;;;;2493769;54;20994;-69
2024/01/26 01:01:10;;;;;;;2.30;0.90;;;13.80;74.20;;;;;;2264337;55;20934;-69
2024/01/26 01:03:36;;;;;;;1.98;0.80;;;13.80;74.20;;;;;;2268512;55;20990;-67
2024/01/26 01:06:03;;;;;;;3.10;1.00;;;13.80;74.20;;;;;;2254077;55;21243;-68
2024/01/26 01:08:29;;;;;;;3.42;0.90;;;13.80;74.20;;;;;;2262136;55;20970;-69
2024/01/26 01:10:56;;;;;;;2.15;0.80;;;13.80;74.20;;;;;;2493417;54;20990;-68
2024/01/26 01:13:25;;;;;;;1.58;0.70;;;13.80;74.20;;;;;;2265313;55;20938;-67
2024/01/26 01:15:51;;;;;;;2.33;0.80;;;13.80;74.20;;;;;;2264378;55;22176;-69
2024/01/26 01:18:18;;;;;;;1.60;0.70;;;13.80;74.30;;;;;;2493515;54;20979;-68
2024/01/26 01:20:44;;;;;;;1.90;0.77;;;13.80;74.40;;;;;;2264298;55;20994;-68
2024/01/26 01:23:10;;;;;;;3.53;0.80;;;13.80;74.40;;;;;;2265407;55;21325;-68
2024/01/26 01:25:37;;;;;;;1.58;0.80;;;13.80;74.40;;;;;;2265039;55;21098;-68
2024/01/26 01:28:05;;;;;;;1.55;0.70;;;13.80;74.30;;;;;;2265243;55;21207;-68
2024/01/26 01:30:31;;;;;;;2.85;0.90;;;13.80;74.30;;;;;;2264392;56;21458;-70
2024/01/26 01:32:57;;;;;;;1.92;0.80;;;13.80;74.30;;;;;;2255789;56;21008;-69
2024/01/26 01:35:24;;;;;;;1.70;0.70;;;13.80;74.30;;;;;;2264122;55;22352;-68
2024/01/26 01:37:50;;;;;;;1.37;0.68;;;13.80;74.20;;;;;;2263454;55;21002;-68
2024/01/26 01:40:17;;;;;;;1.67;0.68;;;13.80;74.20;;;;;;2264522;55;21799;-68
2024/01/26 01:42:44;;;;;;;1.55;0.62;;;13.80;74.30;;;;;;2493810;54;21800;-69
2024/01/26 01:45:13;;;;;;;3.10;0.55;;;13.80;74.30;;;;;;2264545;55;20939;-67
2024/01/26 01:47:41;;;;;;;1.65;0.52;;;13.80;74.20;;;;;;2263870;55;20947;-67
2024/01/26 01:50:07;;;;;;;1.60;0.62;;;13.80;74.30;;;;;;2487447;54;21407;-68
2024/01/26 01:52:35;;;;;;;1.15;0.50;;;13.80;74.20;;;;;;2259373;55;20954;-68
2024/01/26 01:55:01;;;;;;;1.30;0.60;;;13.80;74.20;;;;;;2264312;55;21066;-68
2024/01/26 01:57:29;;;;;;;1.83;0.68;;;13.80;74.20;;;;;;2263409;55;21100;-68
2024/01/26 01:59:55;;;;;;;3.85;0.65;;;13.80;74.20;;;;;;2259058;56;21582;-68
2024/01/26 02:02:25;;;;;;;1.25;0.50;;;13.80;74.20;;;;;;2254566;55;21018;-67
2024/01/26 02:04:51;;;;;;;1.67;0.68;;;13.80;74.00;;;;;;2493335;54;20998;-67
2024/01/26 02:07:18;;;;;;;2.15;0.75;;;13.80;74.10;;;;;;2265194;55;20958;-67
2024/01/26 02:09:44;;;;;;;1.17;0.52;;;13.80;74.10;;;;;;2493488;54;21375;-67
2024/01/26 02:12:11;;;;;;;2.55;0.70;;;13.80;74.10;;;;;;2265106;55;20954;-68
2024/01/26 02:14:39;;;;;;;3.97;0.70;;;13.80;74.10;;;;;;2264456;55;21524;-68
2024/01/26 02:17:06;;;;;;;1.70;0.70;;;13.80;74.10;;;;;;2494481;54;20970;-68
2024/01/26 02:19:33;;;;;;;1.77;0.82;;;13.70;74.00;;;;;;2264816;55;20974;-68
2024/01/26 02:22:00;;;;;;;1.75;0.73;;;13.70;74.00;;;;;;2264578;55;21035;-67
2024/01/26 02:24:26;;;;;;;2.10;0.68;;;13.70;74.00;;;;;;2264898;55;20963;-69
2024/01/26 02:26:52;;;;;;;2.30;0.77;;;13.70;74.00;;;;;;2264395;55;21495;-68
2024/01/26 02:29:18;;;;;;;1.75;0.70;;;13.70;74.00;;;;;;2265452;55;21479;-69
2024/01/26 02:31:45;;;;;;;2.10;0.80;;;13.70;74.00;;;;;;2264844;55;21030;-68
2024/01/26 02:34:13;;;;;;;2.22;0.70;;;13.70;74.00;;;;;;2265020;55;21754;-68
2024/01/26 02:36:39;;;;;;;1.30;0.70;;;13.70;74.00;;;;;;2494057;54;21002;-67
2024/01/26 02:39:05;;;;;;;2.08;0.80;;;13.70;74.00;;;;;;2264022;55;20962;-68
2024/01/26 02:41:33;;;;;;;1.75;0.77;;;13.70;74.10;;;;;;2264841;55;21251;-67
2024/01/26 02:44:01;;;;;;;1.92;0.90;;;13.70;74.10;;;;;;2492253;54;21022;-67
2024/01/26 02:46:28;;;;;;;2.03;0.80;;;13.70;74.10;;;;;;2265017;55;21026;-69
2024/01/26 02:48:54;;;;;;;2.20;0.80;;;13.70;74.10;;;;;;2264433;55;20958;-68
2024/01/26 02:51:21;;;;;;;1.90;0.80;;;13.70;74.00;;;;;;2265462;55;20988;-68
2024/01/26 02:53:47;;;;;;;1.75;0.77;;;13.70;74.10;;;;;;2264118;55;20975;-69
2024/01/26 02:56:13;;;;;;;2.80;1.00;;;13.70;74.10;;;;;;2264092;55;20946;-69
2024/01/26 02:58:40;;;;;;;2.35;0.82;;;13.70;74.00;;;;;;2494595;54;20982;-68
2024/01/26 03:01:09;;;;;;;2.12;0.70;;;13.70;74.00;;;;;;2494229;54;20943;-69
2024/01/26 03:03:35;;;;;;;2.42;0.70;;;13.70;74.20;;;;;;2265049;55;21738;-68
2024/01/26 03:06:02;;;;;;;1.50;0.80;;;13.70;74.20;;;;;;2263629;55;21955;-68
2024/01/26 03:08:28;;;;;;;2.85;0.90;;;13.70;74.10;;;;;;2258084;55;21229;-68
2024/01/26 03:10:54;;;;;;;1.77;0.80;;;13.70;74.10;;;;;;2257250;55;21739;-68
2024/01/26 03:13:23;;;;;;;1.85;0.60;;;13.70;74.10;;;;;;2483928;54;21041;-68
2024/01/26 03:15:51;;;;;;;2.08;0.80;;;13.70;74.10;;;;;;2262590;55;20982;-67
2024/01/26 03:18:18;;;;;;;3.25;0.80;;;13.70;74.10;;;;;;2265700;55;21741;-68
2024/01/26 03:20:45;;;;;;;1.92;0.70;;;13.70;74.10;;;;;;2264442;55;21243;-68
2024/01/26 03:23:12;;;;;;;1.80;0.70;;;13.70;74.10;;;;;;2494179;54;20974;-67
2024/01/26 03:25:38;;;;;;;1.75;0.70;;;13.70;74.10;;;;;;2494088;54;21475;-68
2024/01/26 03:28:06;;;;;;;2.50;0.90;;;13.70;74.20;;;;;;2264195;55;21405;-68
2024/01/26 03:30:33;;;;;;;1.85;0.65;;;13.70;74.20;;;;;;2265114;55;21117;-67
2024/01/26 03:32:59;;;;;;;1.62;0.73;;;13.70;74.20;;;;;;2493917;54;21738;-68
2024/01/26 03:35:27;;;;;;;1.98;0.95;;;13.70;74.20;;;;;;2259999;55;21000;-68
2024/01/26 03:37:53;;;;;;;2.85;0.68;;;13.70;74.20;;;;;;2262817;55;20942;-68
2024/01/26 03:40:21;;;;;;;1.70;0.70;;;13.70;74.10;;;;;;2265123;55;20998;-69
2024/01/26 03:42:47;;;;;;;2.10;0.90;;;13.70;74.10;;;;;;2493488;54;21488;-68
2024/01/26 03:45:15;;;;;;;2.35;0.82;;;13.70;74.10;;;;;;2261052;55;21319;-68
2024/01/26 03:47:42;;;;;;;2.55;0.98;;;13.70;74.00;;;;;;2456303;54;21058;-69
2024/01/26 03:50:09;;;;;;;1.60;0.60;;;13.70;74.10;;;;;;2264882;55;21015;-68
2024/01/26 03:52:35;;;;;;;1.80;0.70;;;13.70;74.10;;;;;;2265328;55;21383;-68
2024/01/26 03:55:06;;;;;;;1.65;0.68;;;13.70;74.20;;;;;;2493698;54;21005;-69
2024/01/26 03:57:33;;;;;;;2.03;0.80;;;13.70;74.10;;;;;;2264933;55;21042;-69
2024/01/26 03:59:59;;;;;;;2.08;0.70;;;13.70;74.10;;;;;;2493830;54;21033;-69
2024/01/26 04:02:26;;;;;;;4.20;1.65;;;13.70;74.00;;;;;;2264298;55;20962;-67
2024/01/26 04:04:53;;;;;;;2.28;0.80;;;13.70;74.00;;;;;;2264503;55;21820;-68
2024/01/26 04:07:19;;;;;;;3.85;1.12;;;13.70;74.00;;;;;;2265084;55;20935;-69
2024/01/26 04:09:45;;;;;;;3.80;0.80;;;13.70;74.10;;;;;;2267281;55;21466;-67
2024/01/26 04:12:12;;;;;;;1.58;0.70;;;13.70;74.00;;;;;;2255935;55;21192;-67
2024/01/26 04:14:38;;;;;;;2.15;0.82;;;13.70;74.00;;;;;;2494363;54;20995;-68
2024/01/26 04:17:05;;;;;;;2.12;0.80;;;13.60;74.00;;;;;;2263472;55;20955;-68
2024/01/26 04:19:32;;;;;;;1.40;0.60;;;13.60;73.90;;;;;;2264823;55;20958;-68
2024/01/26 04:21:58;;;;;;;1.77;0.77;;;13.60;73.90;;;;;;2263905;55;21038;-69
2024/01/26 04:24:25;;;;;;;2.30;0.95;;;13.60;73.80;;;;;;2267696;55;20988;-68
2024/01/26 04:26:51;;;;;;;1.67;0.70;;;13.60;73.70;;;;;;2254267;55;21039;-67
2024/01/26 04:29:17;;;;;;;2.80;0.77;;;13.60;73.70;;;;;;2493818;54;20943;-68
2024/01/26 04:31:47;;;;;;;1.65;0.70;;;13.60;73.60;;;;;;2264914;55;20947;-68
2024/01/26 04:34:15;;;;;;;1.50;0.70;;;13.60;73.60;;;;;;2494168;54;21342;-68
2024/01/26 04:36:47;;;;;;;1.77;0.80;;;13.60;73.60;;;;;;2264207;55;20963;-68
2024/01/26 04:39:15;;;;;;;1.62;0.70;;;13.60;73.40;;;;;;2494182;54;20943;-68
2024/01/26 04:41:45;;;;;;;1.30;0.60;;;13.50;73.50;;;;;;2491835;54;21544;-67
2024/01/26 04:44:17;;;;;;;2.97;1.00;;;13.50;73.50;;;;;;2494078;54;20986;-69
2024/01/26 04:46:43;;;;;;;3.65;0.68;;;13.50;73.70;;;;;;2494214;54;21259;-68
2024/01/26 04:49:09;;;;;;;1.48;0.65;;;13.50;73.70;;;;;;2263945;55;21506;-68
2024/01/26 04:51:39;;;;;;;2.53;0.75;;;13.50;73.80;;;;;;2265189;55;21066;-68
2024/01/26 04:54:05;;;;;;;1.70;0.70;;;13.50;73.80;;;;;;2256699;55;21029;-67
2024/01/26 04:56:32;;;;;;;1.62;0.70;;;13.50;73.90;;;;;;2492252;54;21408;-68
2024/01/26 04:58:59;;;;;;;1.80;0.68;;;13.50;73.90;;;;;;2261983;55;21040;-67
2024/01/26 05:01:26;;;;;;;2.00;0.60;;;13.50;74.00;;;;;;2488043;54;20970;-68
2024/01/26 05:03:52;;;;;;;2.40;0.98;;;13.50;74.00;;;;;;2265289;55;21767;-67
2024/01/26 05:06:19;;;;;;;1.75;0.50;;;13.50;74.10;;;;;;2494773;54;21469;-69
2024/01/26 05:08:46;;;;;;;1.62;0.80;;;13.50;74.10;;;;;;2264593;55;21016;-68
2024/01/26 05:11:12;;;;;;;2.83;0.95;;;13.50;74.10;;;;;;2487008;54;21773;-68
2024/01/26 05:13:39;;;;;;;3.00;1.25;;;13.50;74.00;;;;;;2267917;55;20976;-68
2024/01/26 05:16:05;;;;;;;2.70;0.90;;;13.50;74.00;;;;;;2474792;54;20958;-68
2024/01/26 05:18:35;;;;;;;2.62;1.15;;;13.50;74.10;;;;;;2494531;54;20969;-66
2024/01/26 05:21:01;;;;;;;3.40;1.58;;;13.50;74.00;;;;;;2493732;54;20967;-68
2024/01/26 05:23:29;;;;;;;4.18;2.10;;;13.60;74.20;;;;;;2264493;55;21006;-67
2024/01/26 05:25:56;;;;;;;4.00;1.58;;;13.60;74.20;;;;;;2264002;55;20943;-68
2024/01/26 05:28:22;;;;;;;2.42;1.20;;;13.60;74.20;;;;;;2482364;54;21037;-67
2024/01/26 05:30:50;;;;;;;2.50;1.00;;;13.60;74.20;;;;;;2493455;54;20992;-68
2024/01/26 05:33:17;;;;;;;2.03;0.80;;;13.60;74.10;;;;;;2493923;54;20978;-68
2024/01/26 05:35:44;;;;;;;2.03;0.88;;;13.60;74.80;;;;;;2264458;55;21019;-68
2024/01/26 05:38:11;;;;;;;1.85;0.80;;;13.60;74.00;;;;;;2494203;54;20959;-67
2024/01/26 05:40:38;;;;;;;2.53;0.88;;;13.60;74.00;;;;;;2264955;55;20943;-68
2024/01/26 05:43:04;;;;;;;2.47;1.02;;;13.60;74.00;;;;;;2263648;55;21030;-68
2024/01/26 05:45:31;;;;;;;3.03;1.00;;;13.60;74.00;;;;;;2265528;55;21420;-68
2024/01/26 05:47:57;;;;;;;3.83;1.50;;;13.60;74.00;;;;;;2264890;55;21447;-67
2024/01/26 05:50:24;;;;;;;3.92;1.17;;;13.60;74.00;;;;;;2494484;54;20951;-67
2024/01/26 05:52:50;;;;;;;4.45;1.20;;;13.60;73.90;;;;;;2264226;55;20958;-67
2024/01/26 05:55:16;;;;;;;2.67;1.10;;;13.60;73.90;;;;;;2264176;55;20942;-67
2024/01/26 05:57:43;;;;;;;4.72;1.35;;;13.60;73.90;;;;;;2261709;55;20960;-67
2024/01/26 06:00:10;;;;;;;2.12;0.90;;;13.40;73.60;;;;;;2256246;56;21047;-68
2024/01/26 06:02:38;;;;;;;1.80;0.80;;;13.60;73.90;;;;;;2494254;54;21388;-68
2024/01/26 06:05:05;;;;;;;2.47;0.80;;;13.60;73.90;;;;;;2493443;54;21409;-68
2024/01/26 06:07:34;;;;;;;3.78;1.00;;;13.60;73.80;;;;;;2264937;55;21526;-68
2024/01/26 06:10:00;;;;;;;2.10;0.90;;;13.60;73.80;;;;;;2263258;55;21093;-68
2024/01/26 06:12:30;;;;;;;1.83;0.80;;;13.60;73.80;;;;;;2264986;55;20951;-68
2024/01/26 06:14:57;;;;;;;1.90;0.90;;;13.60;73.90;;;;;;2264414;55;21077;-68
2024/01/26 06:17:23;;;;;;;2.45;0.90;;;13.60;73.90;;;;;;2260544;55;21043;-67
2024/01/26 06:19:51;;;;;;;1.73;0.82;;;13.60;73.80;;;;;;2257407;55;20968;-68
2024/01/26 06:22:19;;;;;;;2.30;0.80;;;13.60;73.90;;;;;;2489118;54;20950;-68
2024/01/26 06:24:45;;;;;;;1.92;0.82;;;13.60;73.80;;;;;;2494722;54;21010;-68
2024/01/26 06:27:11;;;;;;;1.65;0.80;;;13.70;74.00;;;;;;2264993;55;20958;-67
2024/01/26 06:29:39;;;;;;;1.75;0.75;;;13.70;74.00;;;;;;2264814;55;21092;-67
2024/01/26 06:32:05;;;;;;;2.47;1.00;;;13.60;73.90;;;;;;2493346;54;20951;-68
2024/01/26 06:34:33;;;;;;;1.45;0.60;;;13.70;74.00;;;;;;2263833;55;21010;-67
2024/01/26 06:36:59;;;;;;;1.90;0.80;;;13.70;74.00;;;;;;2488442;54;21743;-67
2024/01/26 06:39:27;;;;;;;2.85;0.80;;;13.70;74.00;;;;;;2258325;55;21332;-68
2024/01/26 06:41:53;;;;;;;1.85;0.70;;;13.70;74.00;;;;;;2263780;55;20951;-67
2024/01/26 06:44:20;;;;;;;3.67;0.98;;;13.70;74.00;;;;;;2260493;55;20980;-68
2024/01/26 06:46:46;;;;;;;2.58;1.00;;;13.70;74.00;;;;;;2257620;56;21092;-66
2024/01/26 06:49:15;;;;;;;2.22;0.90;;;13.70;74.00;;;;;;2256342;55;21026;-68
2024/01/26 06:51:42;;;;;;;2.65;0.90;;;13.70;74.70;;;;;;2263319;55;20962;-67
2024/01/26 06:54:08;;;;;;;2.60;0.90;;;13.70;73.90;;;;;;2263797;55;20952;-69
2024/01/26 06:56:35;;;;;;;2.72;1.00;;;13.70;73.80;;;;;;2264602;55;20934;-67
2024/01/26 06:59:01;;;;;;;2.17;0.88;;;13.70;73.80;;;;;;2494102;54;20979;-68
2024/01/26 07:01:28;;;;;;;2.35;0.80;;;13.70;73.80;;;;;;2266047;55;20958;-68
2024/01/26 07:03:54;;;;;;;2.10;0.77;;;13.70;73.70;;;;;;2264349;55;20922;-67
2024/01/26 07:06:20;;;;;;;2.00;0.88;;;13.80;73.80;;;;;;2264973;55;20962;-67
2024/01/26 07:08:48;;;;;;;1.98;0.75;;;13.80;73.80;;;;;;2265087;55;20926;-68
2024/01/26 07:11:16;;;;;;;1.35;0.73;;;13.80;73.80;;;;;;2493456;54;21388;-69
2024/01/26 07:13:44;;;;;;;2.95;0.90;;;13.80;73.70;;;;;;2265422;55;20959;-67
2024/01/26 07:16:11;;;;;;;2.08;0.80;;;13.80;73.70;;;;;;2264127;55;21054;-67
2024/01/26 07:18:37;;;;;;;2.20;0.77;;;13.80;73.70;;;;;;2265060;55;21662;-67
2024/01/26 07:21:10;;;;;;;2.95;0.70;;;13.80;73.70;;;;;;2492774;54;20971;-67
2024/01/26 07:23:39;;;;;;;2.50;0.90;;;13.80;73.60;;;;;;2494641;54;20939;-67
2024/01/26 07:26:08;;;;;;;1.90;0.70;;;13.80;73.50;;;;;;2265062;55;20982;-67
2024/01/26 07:28:34;;;;;;;2.20;0.90;;;13.80;73.60;;;;;;2265134;55;21002;-67
2024/01/26 07:31:00;;;;;;;1.67;0.70;;;13.80;73.70;;;;;;2493947;54;21018;-68
2024/01/26 07:33:27;;;;;;;2.40;0.90;;;13.80;73.70;;;;;;2264694;55;20942;-68
2024/01/26 07:35:53;;;;;;;2.50;0.82;;;13.80;73.70;;;;;;2264638;55;21356;-68
2024/01/26 07:38:20;;;;;;;2.37;0.98;;;13.80;73.70;;;;;;2493574;54;21030;-67
2024/01/26 07:40:46;;;;;;;2.17;0.80;;;13.80;73.80;;;;;;2264487;55;21479;-67
2024/01/26 07:43:12;;;;;;;1.87;0.80;;;13.80;73.80;;;;;;2493910;54;20943;-68
2024/01/26 07:45:39;;;;;;;2.30;0.90;;;13.80;73.80;;;;;;2264980;55;20950;-67
2024/01/26 07:48:05;;;;;;;2.35;1.00;;;13.80;73.90;;;;;;2264690;55;21480;-67
2024/01/26 07:50:32;;;;;;;2.85;0.90;;;13.80;74.00;;;;;;2494623;54;21014;-68
2024/01/26 07:52:58;;;;;;;3.20;1.10;;;13.80;73.90;;;;;;2264237;55;21002;-67
2024/01/26 07:55:24;;;;;;;2.00;0.88;;;13.80;74.00;;;;;;2264322;55;21030;-66
2024/01/26 07:57:51;;;;;;;2.37;0.90;;;13.70;73.90;;;;;;2493920;54;21290;-68
2024/01/26 08:00:18;;;;;;;2.72;1.00;;;13.90;74.10;;;;;;2264060;55;20955;-67
2024/01/26 08:02:47;;;;;;;1.87;0.90;;;13.90;74.20;;;;;;2493990;54;21026;-68
2024/01/26 08:05:16;;;;;;;2.47;0.90;;;13.90;74.20;;;;;;2264222;55;21022;-68
2024/01/26 08:07:42;;;;;;;3.40;1.08;;;13.90;74.00;;;;;;2264570;55;20950;-68
2024/01/26 08:10:09;;;;;;;2.03;0.93;;;13.90;74.20;;;;;;2494347;54;20974;-69
2024/01/26 08:12:36;;;;;;;2.72;0.90;;;14.00;74.30;;;;;;2488888;54;21589;-68
2024/01/26 08:15:04;;;;;;;2.95;1.00;;;14.00;74.50;;;;;;2256314;55;21717;-67
2024/01/26 08:17:30;;;;;;;2.45;0.90;;;14.00;74.40;;;;;;2493629;54;20983;-68
2024/01/26 08:19:58;;;;;;;5.00;1.00;;;14.00;74.40;;;;;;2263618;55;20954;-68
2024/01/26 08:22:27;;;;;;;3.08;1.40;;;14.10;74.50;;;;;;2264898;55;21385;-66
2024/01/26 08:24:58;;;;;;;3.33;1.45;;;14.10;74.50;;;;;;2264683;55;21014;-67
2024/01/26 08:27:27;;;;;;;3.25;1.30;;;14.10;74.50;;;;;;2494150;54;22075;-68
2024/01/26 08:29:53;;;;;;;2.30;1.00;;;14.20;74.40;;;;;;2264374;55;21554;-66
2024/01/26 08:32:20;;;;;;;4.45;1.12;;;14.20;74.60;;;;;;2260106;56;20988;-67
2024/01/26 08:34:46;;;;;;;5.25;1.60;;;14.20;74.60;;;;;;2492452;54;20946;-68
2024/01/26 08:37:12;;;;;;;3.20;1.73;;;14.20;74.50;;;;;;2264611;55;21010;-67
2024/01/26 08:39:42;;;;;;;2.95;1.40;;;14.30;74.50;;;;;;2494073;54;21010;-67
2024/01/26 08:42:09;;;;;;;6.28;2.03;;;14.30;74.40;;;;;;2264491;55;21010;-67
2024/01/26 08:44:35;;;;;;;3.62;1.70;;;14.40;74.50;;;;;;2264722;55;22038;-68
2024/01/26 08:47:01;;;;;;;4.15;2.05;;;14.30;74.20;;;;;;2264573;55;20923;-68
2024/01/26 08:49:28;;;;;;;3.85;1.50;;;14.40;74.30;;;;;;2264244;55;20967;-67
2024/01/26 08:51:55;;;;;;;3.78;1.40;;;14.40;74.30;;;;;;2480918;54;20960;-67
2024/01/26 08:54:22;;;;;;;3.28;1.30;;;14.40;74.30;;;;;;2493664;54;21451;-67
2024/01/26 08:56:48;;;;;;;3.47;1.50;;;14.40;74.40;;;;;;2257428;55;21052;-68
2024/01/26 08:59:14;;;;;;;2.75;1.12;;;14.40;75.00;;;;;;2264555;55;20975;-68
2024/01/26 09:01:41;;;;;;;4.40;1.30;;;14.50;74.30;;;;;;2492982;54;21471;-68
2024/01/26 09:04:08;;;;;;;2.28;1.20;;;14.50;74.30;;;;;;2265012;55;20966;-68
2024/01/26 09:06:35;;;;;;;4.93;1.27;;;14.50;74.20;;;;;;2265554;55;20970;-68
2024/01/26 09:09:02;;;;;;;2.83;1.10;;;14.50;74.20;;;;;;2493110;54;20938;-68
2024/01/26 09:11:29;;;;;;;5.57;1.33;;;14.50;74.10;;;;;;2262588;55;21991;-68
2024/01/26 09:14:01;;;;;;;3.12;1.40;;;14.60;74.20;;;;;;2493368;54;21286;-68
2024/01/26 09:16:27;;;;;;;2.65;1.15;;;14.60;73.90;;;;;;2492473;54;21058;-67
2024/01/26 09:18:54;;;;;;;2.87;1.30;;;14.60;74.00;;;;;;2264797;55;20965;-69
2024/01/26 09:21:20;;;;;;;3.67;1.35;;;14.60;74.00;;;;;;2493077;54;21808;-67
2024/01/26 09:23:47;;;;;;;3.37;1.50;;;14.70;73.90;;;;;;2493812;54;21315;-67
2024/01/26 09:26:17;;;;;;;2.50;1.12;;;14.60;73.80;;;;;;2494540;54;21045;-67
2024/01/26 09:28:43;;;;;;;2.55;1.10;;;14.60;74.60;;;;;;2264645;55;20923;-68
2024/01/26 09:31:11;;;;;;;4.37;1.42;;;14.60;73.90;;;;;;2264926;55;20946;-68
2024/01/26 09:33:37;;;;;;;2.70;1.30;;;14.60;73.80;;;;;;2264713;55;20986;-68
2024/01/26 09:36:05;;;;;;;2.55;1.45;;;14.60;73.80;;;;;;2264502;55;21054;-67
2024/01/26 09:38:31;;;;;;;3.85;1.50;;;14.60;73.80;;;;;;2494084;54;21011;-68
2024/01/26 09:40:59;;;;;;;2.92;1.40;;;14.60;73.80;;;;;;2262988;55;21751;-67
2024/01/26 09:43:25;;;;;;;4.05;1.45;;;14.60;73.80;;;;;;2264557;55;21567;-67
2024/01/26 09:45:52;;;;;;;3.35;1.60;;;14.70;74.00;;;;;;2267932;55;21431;-66
2024/01/26 09:48:21;;;;;;;2.78;1.42;;;14.70;74.00;;;;;;2254606;55;20998;-67
2024/01/26 09:50:51;;;;;;;3.53;1.60;;;14.70;74.00;;;;;;2264677;55;21002;-67
2024/01/26 09:53:18;;;;;;;4.43;1.98;;;14.70;74.20;;;;;;2265090;55;20962;-68
2024/01/26 09:55:48;;;;;;;3.87;1.80;;;14.70;74.20;;;;;;2264383;55;21019;-68
2024/01/26 09:58:17;;;;;;;3.97;1.90;;;14.70;74.00;;;;;;2264276;55;21018;-67
2024/01/26 10:00:45;;;;;;;6.75;2.60;;;14.80;74.10;;;;;;2264400;55;20983;-68
2024/01/26 10:03:12;;;;;;;4.07;1.95;;;14.70;73.80;;;;;;2264226;55;20971;-68
2024/01/26 10:05:39;;;;;;;5.78;2.50;;;14.70;74.00;;;;;;2494700;54;21717;-67
2024/01/26 10:08:12;;;;;;;4.40;2.12;;;14.70;73.90;;;;;;2264971;55;21404;-68
2024/01/26 10:10:40;;;;;;;4.78;2.35;;;14.80;73.70;;;;;;2494741;54;21484;-67
2024/01/26 10:13:07;;;;;;;3.90;2.30;;;14.80;74.00;;;;;;2494400;54;21026;-67
2024/01/26 10:15:33;;;;;;;5.25;2.25;;;14.70;73.90;;;;;;2264151;55;20959;-67
2024/01/26 10:18:00;;;;;;;4.43;2.30;;;14.80;74.00;;;;;;2261632;55;21013;-68
2024/01/26 10:20:26;;;;;;;4.12;1.87;;;14.80;74.00;;;;;;2260387;55;21027;-67
2024/01/26 10:22:53;;;;;;;5.35;2.12;;;14.80;74.00;;;;;;2494524;54;20982;-68
2024/01/26 10:25:19;;;;;;;4.75;1.98;;;14.80;74.00;;;;;;2264902;55;21058;-68
2024/01/26 10:27:46;;;;;;;4.68;1.98;;;14.80;74.80;;;;;;2264168;55;20915;-67
2024/01/26 10:30:14;;;;;;;4.18;2.05;;;14.80;74.10;;;;;;2264390;55;20971;-67
2024/01/26 10:32:40;;;;;;;3.55;1.60;;;14.80;74.20;;;;;;2265071;55;20962;-67
2024/01/26 10:35:07;;;;;;;4.62;1.80;;;14.80;74.20;;;;;;2264874;55;20938;-67
2024/01/26 10:37:34;;;;;;;3.55;1.70;;;14.80;74.20;;;;;;2264836;55;21113;-67
2024/01/26 10:40:02;;;;;;;3.60;1.80;;;14.90;74.20;;;;;;2493183;54;20951;-68
2024/01/26 10:42:32;;;;;;;3.97;1.98;;;14.80;74.10;;;;;;2264478;55;20954;-68
2024/01/26 10:45:00;;;;;;;5.82;2.30;;;14.80;74.20;;;;;;2264641;55;21405;-68
2024/01/26 10:47:27;;;;;;;3.80;2.15;;;14.80;74.20;;;;;;2264284;55;20994;-67
2024/01/26 10:49:53;;;;;;;5.10;2.67;;;14.80;74.10;;;;;;2264487;55;20950;-67
2024/01/26 10:52:20;;;;;;;4.70;1.95;;;14.80;74.10;;;;;;2262756;55;20977;-68
2024/01/26 10:54:49;;;;;;;5.22;2.10;;;14.80;74.10;;;;;;2487425;54;20987;-67
2024/01/26 10:57:17;;;;;;;5.55;2.50;;;14.90;74.20;;;;;;2265232;55;20927;-68
2024/01/26 10:59:43;;;;;;;4.93;2.40;;;14.90;74.00;;;;;;2493826;54;20975;-68
2024/01/26 11:02:12;;;;;;;3.22;1.85;;;14.90;74.00;;;;;;2265638;55;20939;-68
2024/01/26 11:04:43;;;;;;;5.55;2.17;;;14.90;73.90;;;;;;2258801;55;21100;-67
2024/01/26 11:07:09;;;;;;;4.03;1.98;;;14.90;73.90;;;;;;2493189;54;21069;-67
2024/01/26 11:09:42;;;;;;;3.33;1.83;;;14.90;74.10;;;;;;2264835;55;20972;-68
2024/01/26 11:12:25;;;;;;;4.03;1.60;;;14.90;74.20;;;;;;2265217;55;20955;-68
2024/01/26 11:15:13;;;;;;;3.72;1.80;;;14.90;73.50;;;;;;2264050;55;21451;-67
2024/01/26 11:17:53;;;;;;;3.95;1.67;;;14.90;73.60;;;;;;2261669;55;21370;-69
2024/01/26 11:20:41;;;;;;;3.85;1.80;;;14.90;73.80;;;;;;2236798;57;21022;-68
2024/01/26 11:23:11;;;;;;;4.15;1.90;;;14.90;73.60;;;;;;2494700;54;20974;-68
2024/01/26 11:25:44;;;;;;;4.75;2.00;;;14.90;74.10;;;;;;2264243;55;20986;-67
2024/01/26 11:28:14;;;;;;;3.62;2.12;;;14.90;74.20;;;;;;2492549;54;21433;-68
2024/01/26 11:30:41;;;;;;;3.28;1.90;;;14.90;74.30;;;;;;2255254;55;21034;-68
2024/01/26 11:33:23;;;;;;;4.35;2.00;;;14.90;74.40;;;;;;2481154;54;20957;-68
2024/01/26 11:35:49;;;;;;;5.97;2.15;;;14.90;73.80;;;;;;2493687;54;20979;-69
2024/01/26 11:38:19;;;;;;;3.70;1.83;;;14.90;74.40;;;;;;2265027;55;21743;-67
2024/01/26 11:40:49;;;;;;;4.00;1.90;;;14.90;74.40;;;;;;2493398;54;21094;-67
2024/01/26 11:43:17;;;;;;;4.28;1.85;;;14.90;74.40;;;;;;2264682;55;21532;-68
2024/01/26 11:45:45;;;;;;;3.87;1.87;;;14.90;74.50;;;;;;2264213;55;20967;-68
2024/01/26 11:48:13;;;;;;;3.97;1.65;;;15.00;74.70;;;;;;2494268;54;20975;-66
2024/01/26 11:50:42;;;;;;;5.00;1.83;;;15.00;74.70;;;;;;2264430;55;21031;-68
2024/01/26 11:53:08;;;;;;;3.90;1.67;;;15.00;74.70;;;;;;2264334;55;20957;-69
2024/01/26 11:55:35;;;;;;;3.08;1.70;;;15.00;74.70;;;;;;2263967;55;20962;-67
2024/01/26 11:58:02;;;;;;;3.75;2.08;;;15.00;74.70;;;;;;2493445;54;20954;-67
2024/01/26 12:00:31;;;;;;;4.32;2.12;;;15.10;74.70;;;;;;2494006;54;20970;-67
2024/01/26 12:02:57;;;;;;;3.70;2.03;;;15.00;74.70;;;;;;2493027;54;20990;-68
2024/01/26 12:05:26;;;;;;;3.67;1.90;;;15.10;74.70;;;;;;2264723;55;20974;-68
2024/01/26 12:07:52;;;;;;;4.15;1.90;;;15.10;74.70;;;;;;2493451;54;21030;-68
2024/01/26 12:10:19;;;;;;;5.05;2.15;;;15.10;74.60;;;;;;2264968;55;20963;-68
2024/01/26 12:12:47;;;;;;;3.20;1.70;;;15.10;74.50;;;;;;2264149;55;21350;-68
2024/01/26 12:15:27;;;;;;;3.58;1.85;;;15.10;74.50;;;;;;2264405;55;21294;-68
2024/01/26 12:17:57;;;;;;;4.40;1.77;;;15.10;74.50;;;;;;2265085;55;21358;-67
2024/01/26 12:20:23;;;;;;;3.92;2.00;;;15.10;74.50;;;;;;2494041;54;20979;-68
2024/01/26 12:22:50;;;;;;;4.18;2.03;;;15.10;74.50;;;;;;2264397;55;20975;-68
2024/01/26 12:25:18;;;;;;;3.53;1.90;;;15.10;74.40;;;;;;2265188;55;21044;-68
2024/01/26 12:27:44;;;;;;;3.78;1.87;;;15.10;74.40;;;;;;2493700;54;21499;-68
2024/01/26 12:30:11;;;;;;;3.72;2.05;;;15.10;74.40;;;;;;2263907;55;21009;-68
2024/01/26 12:32:39;;;;;;;5.05;2.20;;;15.10;74.50;;;;;;2264733;55;21018;-68
2024/01/26 12:35:06;;;;;;;4.40;2.37;;;15.10;74.40;;;;;;2264965;55;21513;-67
2024/01/26 12:37:33;;;;;;;5.45;1.95;;;15.20;74.50;;;;;;2264554;55;20950;-67
2024/01/26 12:39:59;;;;;;;4.32;2.10;;;15.10;74.40;;;;;;2263011;55;20947;-67
2024/01/26 12:42:26;;;;;;;4.40;1.90;;;15.10;74.50;;;;;;2265227;55;20927;-68
2024/01/26 12:44:52;;;;;;;3.53;2.00;;;15.10;74.50;;;;;;2493686;54;21513;-69
2024/01/26 12:47:20;;;;;;;4.95;2.35;;;15.10;74.50;;;;;;2261353;55;20988;-68